sensor_id;sensor_type;location;lat;lon;timestamp;P1;durP1;ratioP1;P2;durP2;ratioP2
35326;SDS011;21436;52.348;20.928;2023-08-20T00:01:56;41.60;;;28.90;;
35326;SDS011;21436;52.348;20.928;2023-08-20T00:04:26;44.72;;;28.20;;
35326;SDS011;21436;52.348;20.928;2023-08-20T00:06:54;43.95;;;29.33;;
35326;SDS011;21436;52.348;20.928;2023-08-20T00:09:22;44.33;;;30.73;;
35326;SDS011;21436;52.348;20.928;2023-08-20T00:11:51;41.97;;;28.27;;
35326;SDS011;21436;52.348;20.928;2023-08-20T00:14:18;38.38;;;27.42;;
35326;SDS011;21436;52.348;20.928;2023-08-20T00:16:46;40.55;;;28.27;;
35326;SDS011;21436;52.348;20.928;2023-08-20T00:19:14;42.63;;;27.55;;
35326;SDS011;21436;52.348;20.928;2023-08-20T00:21:42;44.30;;;32.10;;
35326;SDS011;21436;52.348;20.928;2023-08-20T00:24:11;44.72;;;29.15;;
35326;SDS011;21436;52.348;20.928;2023-08-20T00:26:39;47.20;;;28.23;;
35326;SDS011;21436;52.348;20.928;2023-08-20T00:29:07;35.92;;;25.85;;
35326;SDS011;21436;52.348;20.928;2023-08-20T00:31:35;38.05;;;28.17;;
35326;SDS011;21436;52.348;20.928;2023-08-20T00:34:03;36.63;;;27.52;;
35326;SDS011;21436;52.348;20.928;2023-08-20T00:36:33;37.15;;;26.95;;
35326;SDS011;21436;52.348;20.928;2023-08-20T00:39:01;40.45;;;27.05;;
35326;SDS011;21436;52.348;20.928;2023-08-20T00:41:28;37.88;;;27.25;;
35326;SDS011;21436;52.348;20.928;2023-08-20T00:43:57;43.53;;;27.27;;
35326;SDS011;21436;52.348;20.928;2023-08-20T00:46:26;39.13;;;28.10;;
35326;SDS011;21436;52.348;20.928;2023-08-20T00:48:54;39.80;;;27.60;;
35326;SDS011;21436;52.348;20.928;2023-08-20T00:51:22;36.15;;;26.88;;
35326;SDS011;21436;52.348;20.928;2023-08-20T00:53:50;36.55;;;26.17;;
35326;SDS011;21436;52.348;20.928;2023-08-20T00:56:18;36.70;;;26.65;;
35326;SDS011;21436;52.348;20.928;2023-08-20T00:58:46;38.30;;;27.08;;
35326;SDS011;21436;52.348;20.928;2023-08-20T01:01:13;36.45;;;26.50;;
35326;SDS011;21436;52.348;20.928;2023-08-20T01:03:41;33.20;;;25.45;;
35326;SDS011;21436;52.348;20.928;2023-08-20T01:06:12;38.75;;;25.27;;
35326;SDS011;21436;52.348;20.928;2023-08-20T01:08:44;38.53;;;24.90;;
35326;SDS011;21436;52.348;20.928;2023-08-20T01:11:16;41.03;;;25.50;;
35326;SDS011;21436;52.348;20.928;2023-08-20T01:13:45;33.40;;;24.95;;
35326;SDS011;21436;52.348;20.928;2023-08-20T01:16:13;37.40;;;25.95;;
35326;SDS011;21436;52.348;20.928;2023-08-20T01:18:40;42.97;;;25.52;;
35326;SDS011;21436;52.348;20.928;2023-08-20T01:21:27;35.00;;;25.25;;
35326;SDS011;21436;52.348;20.928;2023-08-20T01:24:24;35.72;;;25.10;;
35326;SDS011;21436;52.348;20.928;2023-08-20T01:30:05;37.60;;;24.60;;
35326;SDS011;21436;52.348;20.928;2023-08-20T01:32:33;36.45;;;26.17;;
35326;SDS011;21436;52.348;20.928;2023-08-20T01:35:01;33.78;;;25.65;;
35326;SDS011;21436;52.348;20.928;2023-08-20T01:37:31;38.25;;;26.95;;
35326;SDS011;21436;52.348;20.928;2023-08-20T01:39:59;39.88;;;27.45;;
35326;SDS011;21436;52.348;20.928;2023-08-20T01:42:27;36.17;;;25.75;;
35326;SDS011;21436;52.348;20.928;2023-08-20T01:44:54;35.10;;;27.30;;
35326;SDS011;21436;52.348;20.928;2023-08-20T01:47:22;36.53;;;25.50;;
35326;SDS011;21436;52.348;20.928;2023-08-20T01:49:52;32.63;;;24.95;;
35326;SDS011;21436;52.348;20.928;2023-08-20T01:52:19;38.22;;;26.77;;
35326;SDS011;21436;52.348;20.928;2023-08-20T01:54:48;34.50;;;26.30;;
35326;SDS011;21436;52.348;20.928;2023-08-20T01:57:15;38.50;;;26.83;;
35326;SDS011;21436;52.348;20.928;2023-08-20T01:59:43;39.30;;;28.23;;
35326;SDS011;21436;52.348;20.928;2023-08-20T02:02:11;48.78;;;29.95;;
35326;SDS011;21436;52.348;20.928;2023-08-20T02:04:39;43.67;;;28.85;;
35326;SDS011;21436;52.348;20.928;2023-08-20T02:07:06;36.25;;;27.90;;
35326;SDS011;21436;52.348;20.928;2023-08-20T02:09:34;39.03;;;27.25;;
35326;SDS011;21436;52.348;20.928;2023-08-20T02:12:03;39.85;;;27.05;;
35326;SDS011;21436;52.348;20.928;2023-08-20T02:14:31;39.13;;;27.40;;
35326;SDS011;21436;52.348;20.928;2023-08-20T02:17:02;43.47;;;30.27;;
35326;SDS011;21436;52.348;20.928;2023-08-20T02:19:30;38.28;;;26.85;;
35326;SDS011;21436;52.348;20.928;2023-08-20T02:21:57;38.90;;;28.13;;
35326;SDS011;21436;52.348;20.928;2023-08-20T02:24:26;40.85;;;27.00;;
35326;SDS011;21436;52.348;20.928;2023-08-20T02:26:53;45.60;;;27.65;;
35326;SDS011;21436;52.348;20.928;2023-08-20T02:29:21;36.97;;;26.70;;
35326;SDS011;21436;52.348;20.928;2023-08-20T02:31:49;39.92;;;26.90;;
35326;SDS011;21436;52.348;20.928;2023-08-20T02:34:16;38.33;;;27.77;;
35326;SDS011;21436;52.348;20.928;2023-08-20T02:36:46;36.65;;;27.52;;
35326;SDS011;21436;52.348;20.928;2023-08-20T02:39:15;39.65;;;27.63;;
35326;SDS011;21436;52.348;20.928;2023-08-20T02:41:44;35.17;;;26.80;;
35326;SDS011;21436;52.348;20.928;2023-08-20T02:44:11;37.08;;;26.45;;
35326;SDS011;21436;52.348;20.928;2023-08-20T02:46:39;46.67;;;28.33;;
35326;SDS011;21436;52.348;20.928;2023-08-20T02:49:07;42.97;;;29.17;;
35326;SDS011;21436;52.348;20.928;2023-08-20T02:51:35;43.95;;;29.88;;
35326;SDS011;21436;52.348;20.928;2023-08-20T02:54:03;42.60;;;29.05;;
35326;SDS011;21436;52.348;20.928;2023-08-20T02:56:30;42.05;;;28.02;;
35326;SDS011;21436;52.348;20.928;2023-08-20T02:58:58;37.92;;;27.25;;
35326;SDS011;21436;52.348;20.928;2023-08-20T03:01:26;37.55;;;27.30;;
35326;SDS011;21436;52.348;20.928;2023-08-20T03:03:55;37.75;;;25.83;;
35326;SDS011;21436;52.348;20.928;2023-08-20T03:06:22;37.20;;;26.10;;
35326;SDS011;21436;52.348;20.928;2023-08-20T03:08:50;35.60;;;27.75;;
35326;SDS011;21436;52.348;20.928;2023-08-20T03:11:18;37.17;;;26.98;;
35326;SDS011;21436;52.348;20.928;2023-08-20T03:13:45;42.97;;;27.42;;
35326;SDS011;21436;52.348;20.928;2023-08-20T03:16:13;35.10;;;26.63;;
35326;SDS011;21436;52.348;20.928;2023-08-20T03:18:41;39.15;;;27.38;;
35326;SDS011;21436;52.348;20.928;2023-08-20T03:21:08;38.30;;;27.38;;
35326;SDS011;21436;52.348;20.928;2023-08-20T03:23:36;38.80;;;27.75;;
35326;SDS011;21436;52.348;20.928;2023-08-20T03:26:03;38.53;;;27.73;;
35326;SDS011;21436;52.348;20.928;2023-08-20T03:28:31;40.47;;;27.42;;
35326;SDS011;21436;52.348;20.928;2023-08-20T03:31:00;43.65;;;27.77;;
35326;SDS011;21436;52.348;20.928;2023-08-20T03:33:32;39.40;;;26.83;;
35326;SDS011;21436;52.348;20.928;2023-08-20T03:35:59;35.67;;;26.75;;
35326;SDS011;21436;52.348;20.928;2023-08-20T03:38:27;38.75;;;25.58;;
35326;SDS011;21436;52.348;20.928;2023-08-20T03:40:54;39.83;;;26.80;;
35326;SDS011;21436;52.348;20.928;2023-08-20T03:43:25;32.35;;;25.27;;
35326;SDS011;21436;52.348;20.928;2023-08-20T03:45:53;37.47;;;24.95;;
35326;SDS011;21436;52.348;20.928;2023-08-20T03:48:20;38.88;;;25.73;;
35326;SDS011;21436;52.348;20.928;2023-08-20T03:50:48;34.90;;;25.33;;
35326;SDS011;21436;52.348;20.928;2023-08-20T03:53:16;38.40;;;26.13;;
35326;SDS011;21436;52.348;20.928;2023-08-20T03:55:49;33.95;;;26.00;;
35326;SDS011;21436;52.348;20.928;2023-08-20T03:58:17;38.85;;;26.13;;
35326;SDS011;21436;52.348;20.928;2023-08-20T04:00:44;34.88;;;26.67;;
35326;SDS011;21436;52.348;20.928;2023-08-20T04:03:12;41.10;;;27.55;;
35326;SDS011;21436;52.348;20.928;2023-08-20T04:05:41;38.50;;;25.90;;
35326;SDS011;21436;52.348;20.928;2023-08-20T04:08:09;39.88;;;26.00;;
35326;SDS011;21436;52.348;20.928;2023-08-20T04:10:42;38.35;;;26.67;;
35326;SDS011;21436;52.348;20.928;2023-08-20T04:13:10;36.13;;;27.33;;
35326;SDS011;21436;52.348;20.928;2023-08-20T04:15:38;43.60;;;28.58;;
35326;SDS011;21436;52.348;20.928;2023-08-20T04:18:06;37.97;;;27.67;;
35326;SDS011;21436;52.348;20.928;2023-08-20T04:20:33;35.97;;;26.58;;
35326;SDS011;21436;52.348;20.928;2023-08-20T04:23:02;34.15;;;27.33;;
35326;SDS011;21436;52.348;20.928;2023-08-20T04:25:30;39.58;;;28.85;;
35326;SDS011;21436;52.348;20.928;2023-08-20T04:27:58;47.85;;;31.75;;
35326;SDS011;21436;52.348;20.928;2023-08-20T04:30:25;45.03;;;31.42;;
35326;SDS011;21436;52.348;20.928;2023-08-20T04:32:54;45.10;;;29.75;;
35326;SDS011;21436;52.348;20.928;2023-08-20T04:35:21;41.63;;;30.00;;
35326;SDS011;21436;52.348;20.928;2023-08-20T04:37:50;49.05;;;31.45;;
35326;SDS011;21436;52.348;20.928;2023-08-20T04:40:18;41.05;;;29.95;;
35326;SDS011;21436;52.348;20.928;2023-08-20T04:42:46;40.45;;;28.60;;
35326;SDS011;21436;52.348;20.928;2023-08-20T04:45:14;41.03;;;27.80;;
35326;SDS011;21436;52.348;20.928;2023-08-20T04:47:46;37.38;;;27.63;;
35326;SDS011;21436;52.348;20.928;2023-08-20T04:50:14;33.90;;;27.58;;
35326;SDS011;21436;52.348;20.928;2023-08-20T04:52:44;40.20;;;27.45;;
35326;SDS011;21436;52.348;20.928;2023-08-20T04:55:14;32.25;;;26.30;;
35326;SDS011;21436;52.348;20.928;2023-08-20T04:57:43;35.60;;;27.05;;
35326;SDS011;21436;52.348;20.928;2023-08-20T05:00:11;33.45;;;25.95;;
35326;SDS011;21436;52.348;20.928;2023-08-20T05:02:45;34.00;;;25.60;;
35326;SDS011;21436;52.348;20.928;2023-08-20T05:05:16;29.95;;;24.52;;
35326;SDS011;21436;52.348;20.928;2023-08-20T05:07:44;30.45;;;24.55;;
35326;SDS011;21436;52.348;20.928;2023-08-20T05:10:12;29.80;;;23.25;;
35326;SDS011;21436;52.348;20.928;2023-08-20T05:12:41;26.60;;;22.27;;
35326;SDS011;21436;52.348;20.928;2023-08-20T05:15:08;34.25;;;23.88;;
35326;SDS011;21436;52.348;20.928;2023-08-20T05:17:37;23.17;;;19.90;;
35326;SDS011;21436;52.348;20.928;2023-08-20T05:20:05;27.92;;;22.20;;
35326;SDS011;21436;52.348;20.928;2023-08-20T05:22:33;29.02;;;21.17;;
35326;SDS011;21436;52.348;20.928;2023-08-20T05:25:02;25.80;;;21.13;;
35326;SDS011;21436;52.348;20.928;2023-08-20T05:27:30;25.23;;;21.98;;
35326;SDS011;21436;52.348;20.928;2023-08-20T05:29:57;30.90;;;22.38;;
35326;SDS011;21436;52.348;20.928;2023-08-20T05:32:25;26.33;;;21.38;;
35326;SDS011;21436;52.348;20.928;2023-08-20T05:34:53;29.38;;;21.63;;
35326;SDS011;21436;52.348;20.928;2023-08-20T05:37:20;28.92;;;21.63;;
35326;SDS011;21436;52.348;20.928;2023-08-20T05:39:48;26.52;;;20.17;;
35326;SDS011;21436;52.348;20.928;2023-08-20T05:42:16;28.35;;;20.65;;
35326;SDS011;21436;52.348;20.928;2023-08-20T05:44:51;26.30;;;20.65;;
35326;SDS011;21436;52.348;20.928;2023-08-20T05:47:23;23.33;;;20.00;;
35326;SDS011;21436;52.348;20.928;2023-08-20T05:49:51;28.23;;;20.30;;
35326;SDS011;21436;52.348;20.928;2023-08-20T05:52:18;23.33;;;20.80;;
35326;SDS011;21436;52.348;20.928;2023-08-20T05:54:46;28.50;;;21.83;;
35326;SDS011;21436;52.348;20.928;2023-08-20T05:57:14;27.38;;;20.67;;
35326;SDS011;21436;52.348;20.928;2023-08-20T05:59:43;26.77;;;21.65;;
35326;SDS011;21436;52.348;20.928;2023-08-20T06:02:15;24.17;;;19.98;;
35326;SDS011;21436;52.348;20.928;2023-08-20T06:04:44;28.48;;;20.83;;
35326;SDS011;21436;52.348;20.928;2023-08-20T06:07:12;21.50;;;18.77;;
35326;SDS011;21436;52.348;20.928;2023-08-20T06:09:39;25.83;;;19.83;;
35326;SDS011;21436;52.348;20.928;2023-08-20T06:12:07;22.30;;;19.60;;
35326;SDS011;21436;52.348;20.928;2023-08-20T06:14:34;23.60;;;19.60;;
35326;SDS011;21436;52.348;20.928;2023-08-20T06:17:02;26.40;;;19.45;;
35326;SDS011;21436;52.348;20.928;2023-08-20T06:19:29;25.75;;;19.40;;
35326;SDS011;21436;52.348;20.928;2023-08-20T06:21:57;21.98;;;18.80;;
35326;SDS011;21436;52.348;20.928;2023-08-20T06:24:25;25.38;;;19.70;;
35326;SDS011;21436;52.348;20.928;2023-08-20T06:26:53;28.00;;;20.52;;
35326;SDS011;21436;52.348;20.928;2023-08-20T06:29:20;22.40;;;19.58;;
35326;SDS011;21436;52.348;20.928;2023-08-20T06:31:49;26.02;;;20.40;;
35326;SDS011;21436;52.348;20.928;2023-08-20T06:34:17;28.90;;;20.13;;
35326;SDS011;21436;52.348;20.928;2023-08-20T06:36:45;22.48;;;19.42;;
35326;SDS011;21436;52.348;20.928;2023-08-20T06:39:12;25.42;;;20.23;;
35326;SDS011;21436;52.348;20.928;2023-08-20T06:41:41;23.75;;;20.65;;
35326;SDS011;21436;52.348;20.928;2023-08-20T06:44:19;21.65;;;19.13;;
35326;SDS011;21436;52.348;20.928;2023-08-20T06:46:46;22.02;;;19.40;;
35326;SDS011;21436;52.348;20.928;2023-08-20T06:49:14;23.30;;;18.67;;
35326;SDS011;21436;52.348;20.928;2023-08-20T06:51:42;21.90;;;19.05;;
35326;SDS011;21436;52.348;20.928;2023-08-20T06:54:09;24.30;;;18.80;;
35326;SDS011;21436;52.348;20.928;2023-08-20T06:56:37;25.10;;;19.35;;
35326;SDS011;21436;52.348;20.928;2023-08-20T06:59:04;21.00;;;18.77;;
35326;SDS011;21436;52.348;20.928;2023-08-20T07:01:32;20.65;;;18.45;;
35326;SDS011;21436;52.348;20.928;2023-08-20T07:03:59;19.33;;;17.35;;
35326;SDS011;21436;52.348;20.928;2023-08-20T07:06:30;20.70;;;18.33;;
35326;SDS011;21436;52.348;20.928;2023-08-20T07:08:57;22.83;;;18.13;;
35326;SDS011;21436;52.348;20.928;2023-08-20T07:11:25;21.52;;;17.73;;
35326;SDS011;21436;52.348;20.928;2023-08-20T07:13:53;21.42;;;17.75;;
35326;SDS011;21436;52.348;20.928;2023-08-20T07:16:20;20.45;;;18.25;;
35326;SDS011;21436;52.348;20.928;2023-08-20T07:18:48;19.00;;;16.92;;
35326;SDS011;21436;52.348;20.928;2023-08-20T07:21:16;20.00;;;17.85;;
35326;SDS011;21436;52.348;20.928;2023-08-20T07:23:43;20.30;;;18.15;;
35326;SDS011;21436;52.348;20.928;2023-08-20T07:26:11;22.35;;;17.58;;
35326;SDS011;21436;52.348;20.928;2023-08-20T07:28:42;25.40;;;17.42;;
35326;SDS011;21436;52.348;20.928;2023-08-20T07:31:29;19.52;;;16.35;;
35326;SDS011;21436;52.348;20.928;2023-08-20T07:33:58;20.13;;;17.02;;
35326;SDS011;21436;52.348;20.928;2023-08-20T07:36:31;21.30;;;17.30;;
35326;SDS011;21436;52.348;20.928;2023-08-20T07:38:59;19.05;;;16.92;;
35326;SDS011;21436;52.348;20.928;2023-08-20T07:41:29;21.95;;;17.23;;
35326;SDS011;21436;52.348;20.928;2023-08-20T07:43:56;18.35;;;16.42;;
35326;SDS011;21436;52.348;20.928;2023-08-20T07:46:23;19.92;;;17.35;;
35326;SDS011;21436;52.348;20.928;2023-08-20T07:48:51;18.52;;;16.48;;
35326;SDS011;21436;52.348;20.928;2023-08-20T07:51:19;18.63;;;16.30;;
35326;SDS011;21436;52.348;20.928;2023-08-20T07:53:46;19.30;;;16.08;;
35326;SDS011;21436;52.348;20.928;2023-08-20T07:56:14;17.92;;;16.10;;
35326;SDS011;21436;52.348;20.928;2023-08-20T07:58:41;18.65;;;16.75;;
35326;SDS011;21436;52.348;20.928;2023-08-20T08:01:09;18.55;;;16.52;;
35326;SDS011;21436;52.348;20.928;2023-08-20T08:03:36;17.77;;;15.98;;
35326;SDS011;21436;52.348;20.928;2023-08-20T08:06:04;17.38;;;15.65;;
35326;SDS011;21436;52.348;20.928;2023-08-20T08:08:31;17.90;;;16.10;;
35326;SDS011;21436;52.348;20.928;2023-08-20T08:10:59;18.13;;;16.20;;
35326;SDS011;21436;52.348;20.928;2023-08-20T08:13:27;18.20;;;16.30;;
35326;SDS011;21436;52.348;20.928;2023-08-20T08:15:54;17.45;;;15.55;;
35326;SDS011;21436;52.348;20.928;2023-08-20T08:18:22;20.63;;;15.95;;
35326;SDS011;21436;52.348;20.928;2023-08-20T08:20:50;17.98;;;16.08;;
35326;SDS011;21436;52.348;20.928;2023-08-20T08:23:17;24.75;;;15.00;;
35326;SDS011;21436;52.348;20.928;2023-08-20T08:25:45;24.08;;;16.05;;
35326;SDS011;21436;52.348;20.928;2023-08-20T08:28:12;16.70;;;15.00;;
35326;SDS011;21436;52.348;20.928;2023-08-20T08:30:40;16.27;;;14.73;;
35326;SDS011;21436;52.348;20.928;2023-08-20T08:33:08;16.80;;;14.77;;
35326;SDS011;21436;52.348;20.928;2023-08-20T08:35:36;15.20;;;13.73;;
35326;SDS011;21436;52.348;20.928;2023-08-20T08:38:03;15.90;;;14.23;;
35326;SDS011;21436;52.348;20.928;2023-08-20T08:40:32;15.60;;;14.00;;
35326;SDS011;21436;52.348;20.928;2023-08-20T08:43:00;14.45;;;12.95;;
35326;SDS011;21436;52.348;20.928;2023-08-20T08:45:29;14.93;;;13.48;;
35326;SDS011;21436;52.348;20.928;2023-08-20T08:48:01;15.15;;;13.65;;
35326;SDS011;21436;52.348;20.928;2023-08-20T08:50:30;23.45;;;13.40;;
35326;SDS011;21436;52.348;20.928;2023-08-20T08:52:59;15.05;;;13.48;;
35326;SDS011;21436;52.348;20.928;2023-08-20T08:55:27;15.77;;;13.32;;
35326;SDS011;21436;52.348;20.928;2023-08-20T08:57:54;15.98;;;14.43;;
35326;SDS011;21436;52.348;20.928;2023-08-20T09:00:22;15.82;;;14.05;;
35326;SDS011;21436;52.348;20.928;2023-08-20T09:02:50;14.98;;;13.48;;
35326;SDS011;21436;52.348;20.928;2023-08-20T09:05:18;14.88;;;13.20;;
35326;SDS011;21436;52.348;20.928;2023-08-20T09:07:45;14.35;;;12.82;;
35326;SDS011;21436;52.348;20.928;2023-08-20T09:10:15;15.65;;;13.77;;
35326;SDS011;21436;52.348;20.928;2023-08-20T09:12:44;16.25;;;12.95;;
35326;SDS011;21436;52.348;20.928;2023-08-20T09:15:12;14.80;;;13.30;;
35326;SDS011;21436;52.348;20.928;2023-08-20T09:17:41;15.15;;;12.88;;
35326;SDS011;21436;52.348;20.928;2023-08-20T09:20:09;12.98;;;11.73;;
35326;SDS011;21436;52.348;20.928;2023-08-20T09:22:36;14.45;;;12.10;;
35326;SDS011;21436;52.348;20.928;2023-08-20T09:25:05;13.38;;;11.98;;
35326;SDS011;21436;52.348;20.928;2023-08-20T09:27:38;12.52;;;11.40;;
35326;SDS011;21436;52.348;20.928;2023-08-20T09:30:07;12.95;;;11.43;;
35326;SDS011;21436;52.348;20.928;2023-08-20T09:32:35;11.63;;;10.55;;
35326;SDS011;21436;52.348;20.928;2023-08-20T09:35:03;13.90;;;11.65;;
35326;SDS011;21436;52.348;20.928;2023-08-20T09:37:30;13.13;;;11.77;;
35326;SDS011;21436;52.348;20.928;2023-08-20T09:40:00;12.50;;;11.20;;
35326;SDS011;21436;52.348;20.928;2023-08-20T09:42:30;14.10;;;11.25;;
35326;SDS011;21436;52.348;20.928;2023-08-20T09:45:00;13.13;;;11.68;;
35326;SDS011;21436;52.348;20.928;2023-08-20T09:47:30;14.98;;;11.88;;
35326;SDS011;21436;52.348;20.928;2023-08-20T09:50:01;12.67;;;11.37;;
35326;SDS011;21436;52.348;20.928;2023-08-20T09:52:49;14.23;;;11.32;;
35326;SDS011;21436;52.348;20.928;2023-08-20T09:55:31;16.00;;;12.10;;
35326;SDS011;21436;52.348;20.928;2023-08-20T09:58:01;14.38;;;11.40;;
35326;SDS011;21436;52.348;20.928;2023-08-20T10:00:30;12.95;;;11.43;;
35326;SDS011;21436;52.348;20.928;2023-08-20T10:02:58;12.55;;;10.82;;
35326;SDS011;21436;52.348;20.928;2023-08-20T10:05:27;11.90;;;10.80;;
35326;SDS011;21436;52.348;20.928;2023-08-20T10:07:55;11.20;;;10.10;;
35326;SDS011;21436;52.348;20.928;2023-08-20T10:10:23;12.50;;;11.27;;
35326;SDS011;21436;52.348;20.928;2023-08-20T10:12:51;13.38;;;11.88;;
35326;SDS011;21436;52.348;20.928;2023-08-20T10:15:19;11.75;;;10.55;;
35326;SDS011;21436;52.348;20.928;2023-08-20T10:17:47;12.32;;;11.02;;
35326;SDS011;21436;52.348;20.928;2023-08-20T10:20:17;12.30;;;10.95;;
35326;SDS011;21436;52.348;20.928;2023-08-20T10:22:45;11.10;;;10.00;;
35326;SDS011;21436;52.348;20.928;2023-08-20T10:25:23;11.40;;;10.30;;
35326;SDS011;21436;52.348;20.928;2023-08-20T10:27:51;12.20;;;10.82;;
35326;SDS011;21436;52.348;20.928;2023-08-20T10:30:23;14.30;;;11.55;;
35326;SDS011;21436;52.348;20.928;2023-08-20T10:35:25;10.85;;;9.75;;
35326;SDS011;21436;52.348;20.928;2023-08-20T10:38:00;13.82;;;12.27;;
35326;SDS011;21436;52.348;20.928;2023-08-20T10:48:43;15.38;;;12.15;;
35326;SDS011;21436;52.348;20.928;2023-08-20T10:51:18;13.32;;;12.02;;
35326;SDS011;21436;52.348;20.928;2023-08-20T10:54:10;13.25;;;11.85;;
35326;SDS011;21436;52.348;20.928;2023-08-20T10:59:08;13.80;;;11.75;;
35326;SDS011;21436;52.348;20.928;2023-08-20T11:01:37;14.40;;;13.00;;
35326;SDS011;21436;52.348;20.928;2023-08-20T11:04:04;13.13;;;11.77;;
35326;SDS011;21436;52.348;20.928;2023-08-20T11:06:34;12.85;;;11.45;;
35326;SDS011;21436;52.348;20.928;2023-08-20T11:09:02;13.07;;;11.68;;
35326;SDS011;21436;52.348;20.928;2023-08-20T11:11:35;12.68;;;11.48;;
35326;SDS011;21436;52.348;20.928;2023-08-20T11:14:06;13.68;;;12.27;;
35326;SDS011;21436;52.348;20.928;2023-08-20T11:16:37;14.13;;;12.70;;
35326;SDS011;21436;52.348;20.928;2023-08-20T11:19:04;14.10;;;12.70;;
35326;SDS011;21436;52.348;20.928;2023-08-20T11:21:37;15.15;;;13.65;;
35326;SDS011;21436;52.348;20.928;2023-08-20T11:24:05;14.30;;;12.90;;
35326;SDS011;21436;52.348;20.928;2023-08-20T11:26:34;13.70;;;12.45;;
35326;SDS011;21436;52.348;20.928;2023-08-20T11:29:06;14.25;;;12.95;;
35326;SDS011;21436;52.348;20.928;2023-08-20T11:31:37;14.63;;;12.93;;
35326;SDS011;21436;52.348;20.928;2023-08-20T11:34:05;16.25;;;13.88;;
35326;SDS011;21436;52.348;20.928;2023-08-20T11:36:35;15.27;;;13.77;;
35326;SDS011;21436;52.348;20.928;2023-08-20T11:39:02;15.82;;;13.90;;
35326;SDS011;21436;52.348;20.928;2023-08-20T11:41:30;13.90;;;12.60;;
35326;SDS011;21436;52.348;20.928;2023-08-20T11:43:58;14.35;;;12.93;;
35326;SDS011;21436;52.348;20.928;2023-08-20T11:46:26;15.43;;;13.82;;
35326;SDS011;21436;52.348;20.928;2023-08-20T11:51:37;16.00;;;14.40;;
35326;SDS011;21436;52.348;20.928;2023-08-20T11:54:05;16.40;;;14.55;;
35326;SDS011;21436;52.348;20.928;2023-08-20T11:59:18;15.35;;;13.77;;
35326;SDS011;21436;52.348;20.928;2023-08-20T12:01:54;15.23;;;13.82;;
35326;SDS011;21436;52.348;20.928;2023-08-20T12:04:24;18.20;;;13.52;;
35326;SDS011;21436;52.348;20.928;2023-08-20T12:09:35;15.80;;;14.13;;
35326;SDS011;21436;52.348;20.928;2023-08-20T12:12:05;14.68;;;13.15;;
35326;SDS011;21436;52.348;20.928;2023-08-20T12:14:33;14.70;;;13.20;;
35326;SDS011;21436;52.348;20.928;2023-08-20T12:17:01;15.05;;;13.25;;
35326;SDS011;21436;52.348;20.928;2023-08-20T12:19:30;13.50;;;12.20;;
35326;SDS011;21436;52.348;20.928;2023-08-20T12:21:58;13.73;;;12.27;;
35326;SDS011;21436;52.348;20.928;2023-08-20T12:24:25;14.10;;;12.57;;
35326;SDS011;21436;52.348;20.928;2023-08-20T12:26:53;12.77;;;11.43;;
35326;SDS011;21436;52.348;20.928;2023-08-20T12:29:21;13.68;;;12.25;;
35326;SDS011;21436;52.348;20.928;2023-08-20T12:31:48;13.15;;;10.82;;
35326;SDS011;21436;52.348;20.928;2023-08-20T12:34:16;12.82;;;11.52;;
35326;SDS011;21436;52.348;20.928;2023-08-20T12:36:43;12.52;;;11.32;;
35326;SDS011;21436;52.348;20.928;2023-08-20T12:39:11;12.75;;;11.38;;
35326;SDS011;21436;52.348;20.928;2023-08-20T12:41:38;12.73;;;11.18;;
35326;SDS011;21436;52.348;20.928;2023-08-20T12:44:06;12.77;;;11.48;;
35326;SDS011;21436;52.348;20.928;2023-08-20T12:46:34;13.88;;;11.73;;
35326;SDS011;21436;52.348;20.928;2023-08-20T12:49:01;12.70;;;11.32;;
35326;SDS011;21436;52.348;20.928;2023-08-20T12:51:29;12.43;;;11.10;;
35326;SDS011;21436;52.348;20.928;2023-08-20T12:53:56;12.18;;;10.43;;
35326;SDS011;21436;52.348;20.928;2023-08-20T12:56:24;12.63;;;10.55;;
35326;SDS011;21436;52.348;20.928;2023-08-20T12:58:52;15.63;;;11.48;;
35326;SDS011;21436;52.348;20.928;2023-08-20T13:01:19;14.60;;;12.27;;
35326;SDS011;21436;52.348;20.928;2023-08-20T13:03:47;12.35;;;11.15;;
35326;SDS011;21436;52.348;20.928;2023-08-20T13:06:16;13.23;;;11.90;;
35326;SDS011;21436;52.348;20.928;2023-08-20T13:08:44;14.20;;;12.00;;
35326;SDS011;21436;52.348;20.928;2023-08-20T13:11:13;15.23;;;11.63;;
35326;SDS011;21436;52.348;20.928;2023-08-20T13:13:41;12.73;;;11.43;;
35326;SDS011;21436;52.348;20.928;2023-08-20T13:16:09;13.85;;;11.18;;
35326;SDS011;21436;52.348;20.928;2023-08-20T13:18:37;13.38;;;11.98;;
35326;SDS011;21436;52.348;20.928;2023-08-20T13:21:04;14.10;;;11.68;;
35326;SDS011;21436;52.348;20.928;2023-08-20T13:23:32;12.38;;;10.95;;
35326;SDS011;21436;52.348;20.928;2023-08-20T13:26:00;13.07;;;11.75;;
35326;SDS011;21436;52.348;20.928;2023-08-20T13:28:27;11.93;;;10.73;;
35326;SDS011;21436;52.348;20.928;2023-08-20T13:30:55;12.75;;;11.52;;
35326;SDS011;21436;52.348;20.928;2023-08-20T13:33:23;17.60;;;11.10;;
35326;SDS011;21436;52.348;20.928;2023-08-20T13:35:50;12.07;;;10.88;;
35326;SDS011;21436;52.348;20.928;2023-08-20T13:38:19;12.38;;;11.07;;
35326;SDS011;21436;52.348;20.928;2023-08-20T13:40:49;11.73;;;10.55;;
35326;SDS011;21436;52.348;20.928;2023-08-20T13:43:17;12.05;;;10.75;;
35326;SDS011;21436;52.348;20.928;2023-08-20T13:45:44;12.52;;;11.00;;
35326;SDS011;21436;52.348;20.928;2023-08-20T13:48:12;13.75;;;11.50;;
35326;SDS011;21436;52.348;20.928;2023-08-20T13:50:40;12.02;;;10.55;;
35326;SDS011;21436;52.348;20.928;2023-08-20T13:53:07;11.70;;;10.60;;
35326;SDS011;21436;52.348;20.928;2023-08-20T13:55:35;12.20;;;10.93;;
35326;SDS011;21436;52.348;20.928;2023-08-20T13:58:02;13.95;;;12.15;;
35326;SDS011;21436;52.348;20.928;2023-08-20T14:00:30;12.95;;;11.65;;
35326;SDS011;21436;52.348;20.928;2023-08-20T14:02:58;13.20;;;11.90;;
35326;SDS011;21436;52.348;20.928;2023-08-20T14:05:26;14.98;;;12.63;;
35326;SDS011;21436;52.348;20.928;2023-08-20T14:07:55;14.90;;;11.95;;
35326;SDS011;21436;52.348;20.928;2023-08-20T14:10:24;13.57;;;11.65;;
35326;SDS011;21436;52.348;20.928;2023-08-20T14:12:51;14.07;;;12.30;;
35326;SDS011;21436;52.348;20.928;2023-08-20T14:15:19;13.52;;;12.02;;
35326;SDS011;21436;52.348;20.928;2023-08-20T14:17:46;13.10;;;11.80;;
35326;SDS011;21436;52.348;20.928;2023-08-20T14:20:15;14.73;;;12.35;;
35326;SDS011;21436;52.348;20.928;2023-08-20T14:22:43;12.63;;;11.43;;
35326;SDS011;21436;52.348;20.928;2023-08-20T14:25:10;13.35;;;11.98;;
35326;SDS011;21436;52.348;20.928;2023-08-20T14:27:38;13.52;;;12.23;;
35326;SDS011;21436;52.348;20.928;2023-08-20T14:30:06;15.15;;;12.95;;
35326;SDS011;21436;52.348;20.928;2023-08-20T14:32:35;14.80;;;13.20;;
35326;SDS011;21436;52.348;20.928;2023-08-20T14:35:07;14.40;;;11.77;;
35326;SDS011;21436;52.348;20.928;2023-08-20T14:37:35;14.50;;;12.98;;
35326;SDS011;21436;52.348;20.928;2023-08-20T14:40:03;14.35;;;12.85;;
35326;SDS011;21436;52.348;20.928;2023-08-20T14:42:33;14.50;;;13.02;;